sensor_id;sensor_type;location;lat;lon;timestamp;pressure;altitude;pressure_sealevel;temperature;humidity
55914;BME280;58179;48.776;9.124;2024-01-11T00:01:37;98267.22;;;-7.46;100.00
55914;BME280;58179;48.776;9.124;2024-01-11T00:04:03;98262.19;;;-7.47;100.00
55914;BME280;58179;48.776;9.124;2024-01-11T00:06:29;98263.13;;;-7.48;100.00
55914;BME280;58179;48.776;9.124;2024-01-11T00:08:56;98259.84;;;-7.50;100.00
55914;BME280;58179;48.776;9.124;2024-01-11T00:11:22;98267.66;;;-7.52;100.00
55914;BME280;58179;48.776;9.124;2024-01-11T00:13:48;98265.25;;;-7.53;100.00
55914;BME280;58179;48.776;9.124;2024-01-11T00:16:14;98264.41;;;-7.54;100.00
55914;BME280;58179;48.776;9.124;2024-01-11T00:18:41;98267.91;;;-7.55;100.00
55914;BME280;58179;48.776;9.124;2024-01-11T00:21:07;98269.78;;;-7.57;100.00
55914;BME280;58179;48.776;9.124;2024-01-11T00:23:34;98277.50;;;-7.57;100.00
55914;BME280;58179;48.776;9.124;2024-01-11T00:26:00;98273.28;;;-7.58;100.00
55914;BME280;58179;48.776;9.124;2024-01-11T00:28:26;98273.53;;;-7.61;100.00
55914;BME280;58179;48.776;9.124;2024-01-11T00:30:52;98283.81;;;-7.61;100.00
55914;BME280;58179;48.776;9.124;2024-01-11T00:33:18;98282.16;;;-7.62;100.00
55914;BME280;58179;48.776;9.124;2024-01-11T00:35:46;98281.25;;;-7.61;100.00
55914;BME280;58179;48.776;9.124;2024-01-11T00:38:12;98282.28;;;-7.63;100.00
55914;BME280;58179;48.776;9.124;2024-01-11T00:40:38;98277.13;;;-7.63;100.00
55914;BME280;58179;48.776;9.124;2024-01-11T00:43:04;98283.22;;;-7.64;100.00
55914;BME280;58179;48.776;9.124;2024-01-11T00:45:30;98277.25;;;-7.65;100.00
55914;BME280;58179;48.776;9.124;2024-01-11T00:47:56;98274.78;;;-7.66;100.00
55914;BME280;58179;48.776;9.124;2024-01-11T00:50:22;98282.63;;;-7.68;100.00
55914;BME280;58179;48.776;9.124;2024-01-11T00:52:50;98273.28;;;-7.69;100.00
55914;BME280;58179;48.776;9.124;2024-01-11T00:55:16;98273.28;;;-7.69;100.00
55914;BME280;58179;48.776;9.124;2024-01-11T00:57:42;98267.31;;;-7.69;100.00
55914;BME280;58179;48.776;9.124;2024-01-11T01:00:10;98266.41;;;-7.68;100.00
55914;BME280;58179;48.776;9.124;2024-01-11T01:02:40;98274.22;;;-7.70;100.00
55914;BME280;58179;48.776;9.124;2024-01-11T01:05:07;98277.72;;;-7.71;100.00
55914;BME280;58179;48.776;9.124;2024-01-11T01:07:33;98281.22;;;-7.72;100.00
55914;BME280;58179;48.776;9.124;2024-01-11T01:10:01;98279.72;;;-7.74;100.00
55914;BME280;58179;48.776;9.124;2024-01-11T01:12:27;98282.28;;;-7.74;100.00
55914;BME280;58179;48.776;9.124;2024-01-11T01:14:54;98288.22;;;-7.74;100.00
55914;BME280;58179;48.776;9.124;2024-01-11T01:17:22;98277.16;;;-7.74;100.00
55914;BME280;58179;48.776;9.124;2024-01-11T01:19:48;98281.47;;;-7.75;100.00
55914;BME280;58179;48.776;9.124;2024-01-11T01:22:14;98283.22;;;-7.75;100.00
55914;BME280;58179;48.776;9.124;2024-01-11T01:24:40;98277.25;;;-7.76;100.00
55914;BME280;58179;48.776;9.124;2024-01-11T01:27:08;98275.50;;;-7.75;100.00
55914;BME280;58179;48.776;9.124;2024-01-11T01:29:34;98272.13;;;-7.76;100.00
55914;BME280;58179;48.776;9.124;2024-01-11T01:32:00;98274.69;;;-7.76;100.00
55914;BME280;58179;48.776;9.124;2024-01-11T01:34:26;98278.28;;;-7.78;100.00
55914;BME280;58179;48.776;9.124;2024-01-11T01:36:52;98282.59;;;-7.79;100.00
55914;BME280;58179;48.776;9.124;2024-01-11T01:39:19;98276.91;;;-7.83;100.00
55914;BME280;58179;48.776;9.124;2024-01-11T01:41:45;98289.84;;;-7.84;100.00
55914;BME280;58179;48.776;9.124;2024-01-11T01:44:12;98283.06;;;-7.85;100.00
55914;BME280;58179;48.776;9.124;2024-01-11T01:46:38;98293.34;;;-7.85;100.00
55914;BME280;58179;48.776;9.124;2024-01-11T01:49:05;98296.84;;;-7.86;100.00
55914;BME280;58179;48.776;9.124;2024-01-11T01:51:32;98302.00;;;-7.86;100.00
55914;BME280;58179;48.776;9.124;2024-01-11T01:54:00;98300.44;;;-7.89;100.00
55914;BME280;58179;48.776;9.124;2024-01-11T01:56:27;98312.63;;;-7.91;100.00
55914;BME280;58179;48.776;9.124;2024-01-11T01:58:54;98313.66;;;-7.93;100.00
55914;BME280;58179;48.776;9.124;2024-01-11T02:01:23;98317.03;;;-7.93;100.00
55914;BME280;58179;48.776;9.124;2024-01-11T02:03:52;98318.91;;;-7.95;100.00
55914;BME280;58179;48.776;9.124;2024-01-11T02:06:22;98308.72;;;-7.96;100.00
55914;BME280;58179;48.776;9.124;2024-01-11T02:08:50;98312.13;;;-7.96;100.00
55914;BME280;58179;48.776;9.124;2024-01-11T02:11:18;98312.25;;;-7.97;100.00
55914;BME280;58179;48.776;9.124;2024-01-11T02:13:45;98308.84;;;-7.98;100.00
55914;BME280;58179;48.776;9.124;2024-01-11T02:16:12;98317.50;;;-7.99;100.00
55914;BME280;58179;48.776;9.124;2024-01-11T02:18:40;98307.31;;;-8.00;100.00
55914;BME280;58179;48.776;9.124;2024-01-11T02:21:09;98302.28;;;-8.02;100.00
55914;BME280;58179;48.776;9.124;2024-01-11T02:23:40;98310.81;;;-8.01;100.00
55914;BME280;58179;48.776;9.124;2024-01-11T02:26:13;98311.75;;;-8.02;100.00
55914;BME280;58179;48.776;9.124;2024-01-11T02:28:43;98312.81;;;-8.05;100.00
55914;BME280;58179;48.776;9.124;2024-01-11T02:31:10;98315.59;;;-8.08;100.00
55914;BME280;58179;48.776;9.124;2024-01-11T02:33:36;98305.31;;;-8.08;100.00
55914;BME280;58179;48.776;9.124;2024-01-11T02:36:03;98311.28;;;-8.07;100.00
55914;BME280;58179;48.776;9.124;2024-01-11T02:38:30;98313.13;;;-8.09;100.00
55914;BME280;58179;48.776;9.124;2024-01-11T02:40:56;98312.31;;;-8.10;100.00
55914;BME280;58179;48.776;9.124;2024-01-11T02:43:25;98315.69;;;-8.09;100.00
55914;BME280;58179;48.776;9.124;2024-01-11T02:45:54;98325.16;;;-8.10;100.00
55914;BME280;58179;48.776;9.124;2024-01-11T02:48:21;98321.75;;;-8.10;100.00
55914;BME280;58179;48.776;9.124;2024-01-11T02:50:48;98318.50;;;-8.12;100.00
55914;BME280;58179;48.776;9.124;2024-01-11T02:53:14;98311.72;;;-8.13;100.00
55914;BME280;58179;48.776;9.124;2024-01-11T02:55:40;98310.09;;;-8.14;100.00
55914;BME280;58179;48.776;9.124;2024-01-11T02:58:06;98315.31;;;-8.16;100.00
55914;BME280;58179;48.776;9.124;2024-01-11T03:00:34;98311.94;;;-8.16;100.00
55914;BME280;58179;48.776;9.124;2024-01-11T03:03:00;98303.53;;;-8.18;100.00
55914;BME280;58179;48.776;9.124;2024-01-11T03:05:26;98299.44;;;-8.21;100.00
55914;BME280;58179;48.776;9.124;2024-01-11T03:07:52;98298.63;;;-8.22;100.00
55914;BME280;58179;48.776;9.124;2024-01-11T03:10:19;98294.41;;;-8.23;100.00
55914;BME280;58179;48.776;9.124;2024-01-11T03:12:45;98296.97;;;-8.23;100.00
55914;BME280;58179;48.776;9.124;2024-01-11T03:15:11;98294.53;;;-8.24;100.00
55914;BME280;58179;48.776;9.124;2024-01-11T03:17:38;98288.66;;;-8.26;100.00
55914;BME280;58179;48.776;9.124;2024-01-11T03:20:05;98287.84;;;-8.27;100.00
55914;BME280;58179;48.776;9.124;2024-01-11T03:22:31;98289.63;;;-8.27;100.00
55914;BME280;58179;48.776;9.124;2024-01-11T03:24:58;98287.16;;;-8.29;100.00
55914;BME280;58179;48.776;9.124;2024-01-11T03:27:24;98290.66;;;-8.30;100.00
55914;BME280;58179;48.776;9.124;2024-01-11T03:29:50;98287.25;;;-8.30;100.00
55914;BME280;58179;48.776;9.124;2024-01-11T03:32:16;98285.75;;;-8.33;100.00
55914;BME280;58179;48.776;9.124;2024-01-11T03:34:44;98290.06;;;-8.33;100.00
55914;BME280;58179;48.776;9.124;2024-01-11T03:37:10;98280.88;;;-8.36;100.00
55914;BME280;58179;48.776;9.124;2024-01-11T03:39:36;98287.75;;;-8.36;100.00
55914;BME280;58179;48.776;9.124;2024-01-11T03:42:02;98287.84;;;-8.38;100.00
55914;BME280;58179;48.776;9.124;2024-01-11T03:44:30;98280.25;;;-8.39;100.00
55914;BME280;58179;48.776;9.124;2024-01-11T03:46:57;98284.56;;;-8.40;100.00
55914;BME280;58179;48.776;9.124;2024-01-11T03:49:23;98285.50;;;-8.41;100.00
55914;BME280;58179;48.776;9.124;2024-01-11T03:51:51;98281.28;;;-8.42;100.00
55914;BME280;58179;48.776;9.124;2024-01-11T03:54:17;98285.63;;;-8.42;100.00
55914;BME280;58179;48.776;9.124;2024-01-11T03:56:43;98289.22;;;-8.45;100.00
55914;BME280;58179;48.776;9.124;2024-01-11T03:59:10;98285.03;;;-8.46;100.00
55914;BME280;58179;48.776;9.124;2024-01-11T04:01:40;98283.16;;;-8.44;100.00
55914;BME280;58179;48.776;9.124;2024-01-11T04:04:06;98288.50;;;-8.47;100.00
55914;BME280;58179;48.776;9.124;2024-01-11T04:06:32;98273.94;;;-8.46;100.00
55914;BME280;58179;48.776;9.124;2024-01-11T04:09:00;98279.16;;;-8.48;100.00
55914;BME280;58179;48.776;9.124;2024-01-11T04:11:28;98270.78;;;-8.50;100.00
55914;BME280;58179;48.776;9.124;2024-01-11T04:13:54;98287.94;;;-8.50;100.00
55914;BME280;58179;48.776;9.124;2024-01-11T04:16:20;98278.59;;;-8.51;100.00
55914;BME280;58179;48.776;9.124;2024-01-11T04:18:47;98269.13;;;-8.51;100.00
55914;BME280;58179;48.776;9.124;2024-01-11T04:21:21;98269.97;;;-8.50;100.00
55914;BME280;58179;48.776;9.124;2024-01-11T04:23:47;98271.59;;;-8.49;100.00
55914;BME280;58179;48.776;9.124;2024-01-11T04:26:15;98275.91;;;-8.50;100.00
55914;BME280;58179;48.776;9.124;2024-01-11T04:28:41;98273.44;;;-8.51;100.00
55914;BME280;58179;48.776;9.124;2024-01-11T04:31:08;98283.72;;;-8.51;100.00
55914;BME280;58179;48.776;9.124;2024-01-11T04:33:34;98281.25;;;-8.53;100.00
55914;BME280;58179;48.776;9.124;2024-01-11T04:36:00;98281.34;;;-8.54;100.00
55914;BME280;58179;48.776;9.124;2024-01-11T04:38:27;98272.94;;;-8.56;100.00
55914;BME280;58179;48.776;9.124;2024-01-11T04:40:53;98277.28;;;-8.57;100.00
55914;BME280;58179;48.776;9.124;2024-01-11T04:43:20;98273.06;;;-8.58;100.00
55914;BME280;58179;48.776;9.124;2024-01-11T04:45:46;98274.00;;;-8.59;100.00
55914;BME280;58179;48.776;9.124;2024-01-11T04:48:13;98275.75;;;-8.59;100.00
55914;BME280;58179;48.776;9.124;2024-01-11T04:50:39;98273.19;;;-8.59;100.00
55914;BME280;58179;48.776;9.124;2024-01-11T04:53:05;98271.53;;;-8.61;100.00
55914;BME280;58179;48.776;9.124;2024-01-11T04:55:31;98273.28;;;-8.61;100.00
55914;BME280;58179;48.776;9.124;2024-01-11T04:57:58;98270.81;;;-8.63;100.00
55914;BME280;58179;48.776;9.124;2024-01-11T05:00:25;98263.22;;;-8.64;100.00
55914;BME280;58179;48.776;9.124;2024-01-11T05:02:51;98270.91;;;-8.64;100.00
55914;BME280;58179;48.776;9.124;2024-01-11T05:05:18;98264.28;;;-8.67;100.00
55914;BME280;58179;48.776;9.124;2024-01-11T05:07:44;98279.69;;;-8.67;100.00
55914;BME280;58179;48.776;9.124;2024-01-11T05:10:10;98278.03;;;-8.68;100.00
55914;BME280;58179;48.776;9.124;2024-01-11T05:12:36;98278.84;;;-8.67;100.00
55914;BME280;58179;48.776;9.124;2024-01-11T05:15:04;98280.59;;;-8.68;100.00
55914;BME280;58179;48.776;9.124;2024-01-11T05:17:33;98284.91;;;-8.68;100.00
55914;BME280;58179;48.776;9.124;2024-01-11T05:19:59;98289.22;;;-8.69;100.00
55914;BME280;58179;48.776;9.124;2024-01-11T05:22:26;98294.34;;;-8.69;100.00
55914;BME280;58179;48.776;9.124;2024-01-11T05:24:52;98298.66;;;-8.69;100.00
55914;BME280;58179;48.776;9.124;2024-01-11T05:27:18;98294.47;;;-8.70;100.00
55914;BME280;58179;48.776;9.124;2024-01-11T05:29:44;98298.78;;;-8.71;100.00
55914;BME280;58179;48.776;9.124;2024-01-11T05:32:10;98299.59;;;-8.70;100.00
55914;BME280;58179;48.776;9.124;2024-01-11T05:34:38;98303.09;;;-8.71;100.00
55914;BME280;58179;48.776;9.124;2024-01-11T05:37:04;98303.09;;;-8.71;100.00
55914;BME280;58179;48.776;9.124;2024-01-11T05:39:30;98300.50;;;-8.71;100.00
55914;BME280;58179;48.776;9.124;2024-01-11T05:41:57;98304.81;;;-8.72;100.00
55914;BME280;58179;48.776;9.124;2024-01-11T05:44:23;98310.91;;;-8.73;100.00
55914;BME280;58179;48.776;9.124;2024-01-11T05:46:49;98314.41;;;-8.74;100.00
55914;BME280;58179;48.776;9.124;2024-01-11T05:49:15;98323.03;;;-8.75;100.00
55914;BME280;58179;48.776;9.124;2024-01-11T05:51:43;98318.91;;;-8.77;100.00
55914;BME280;58179;48.776;9.124;2024-01-11T05:54:09;98319.00;;;-8.79;100.00
55914;BME280;58179;48.776;9.124;2024-01-11T05:56:35;98327.66;;;-8.80;100.00
55914;BME280;58179;48.776;9.124;2024-01-11T05:59:01;98335.34;;;-8.80;100.00
55914;BME280;58179;48.776;9.124;2024-01-11T06:01:27;98334.53;;;-8.80;100.00
55914;BME280;58179;48.776;9.124;2024-01-11T06:03:53;98331.16;;;-8.81;100.00
55914;BME280;58179;48.776;9.124;2024-01-11T06:06:21;98326.94;;;-8.82;100.00
55914;BME280;58179;48.776;9.124;2024-01-11T06:08:48;98340.59;;;-8.81;100.00
55914;BME280;58179;48.776;9.124;2024-01-11T06:11:14;98344.09;;;-8.82;100.00
55914;BME280;58179;48.776;9.124;2024-01-11T06:13:41;98329.59;;;-8.83;100.00
55914;BME280;58179;48.776;9.124;2024-01-11T06:16:07;98338.13;;;-8.83;100.00
55914;BME280;58179;48.776;9.124;2024-01-11T06:18:34;98340.78;;;-8.84;100.00
55914;BME280;58179;48.776;9.124;2024-01-11T06:21:01;98341.72;;;-8.85;100.00
55914;BME280;58179;48.776;9.124;2024-01-11T06:23:27;98338.47;;;-8.87;100.00
55914;BME280;58179;48.776;9.124;2024-01-11T06:25:54;98329.13;;;-8.88;100.00
55914;BME280;58179;48.776;9.124;2024-01-11T06:28:20;98333.53;;;-8.90;100.00
55914;BME280;58179;48.776;9.124;2024-01-11T06:30:46;98331.06;;;-8.92;100.00
55914;BME280;58179;48.776;9.124;2024-01-11T06:33:13;98327.78;;;-8.94;100.00
55914;BME280;58179;48.776;9.124;2024-01-11T06:35:39;98329.53;;;-8.94;100.00
55914;BME280;58179;48.776;9.124;2024-01-11T06:38:05;98328.72;;;-8.95;100.00
55914;BME280;58179;48.776;9.124;2024-01-11T06:40:32;98329.66;;;-8.96;100.00
55914;BME280;58179;48.776;9.124;2024-01-11T06:42:59;98333.03;;;-8.95;100.00
55914;BME280;58179;48.776;9.124;2024-01-11T06:45:25;98332.09;;;-8.94;100.00
55914;BME280;58179;48.776;9.124;2024-01-11T06:47:51;98329.53;;;-8.94;100.00
55914;BME280;58179;48.776;9.124;2024-01-11T06:50:17;98334.66;;;-8.94;100.00
55914;BME280;58179;48.776;9.124;2024-01-11T06:52:43;98333.03;;;-8.95;100.00
55914;BME280;58179;48.776;9.124;2024-01-11T06:55:10;98345.03;;;-8.96;100.00
55914;BME280;58179;48.776;9.124;2024-01-11T06:57:37;98354.69;;;-9.00;100.00
55914;BME280;58179;48.776;9.124;2024-01-11T07:00:05;98350.38;;;-8.99;100.00
55914;BME280;58179;48.776;9.124;2024-01-11T07:02:33;98353.84;;;-9.00;100.00
55914;BME280;58179;48.776;9.124;2024-01-11T07:04:59;98350.38;;;-8.99;100.00
55914;BME280;58179;48.776;9.124;2024-01-11T07:07:25;98351.28;;;-9.00;100.00
55914;BME280;58179;48.776;9.124;2024-01-11T07:09:52;98358.06;;;-8.99;100.00
55914;BME280;58179;48.776;9.124;2024-01-11T07:12:21;98364.84;;;-8.98;100.00
55914;BME280;58179;48.776;9.124;2024-01-11T07:14:47;98369.97;;;-8.98;100.00
55914;BME280;58179;48.776;9.124;2024-01-11T07:17:15;98377.66;;;-8.98;100.00
55914;BME280;58179;48.776;9.124;2024-01-11T07:19:41;98376.84;;;-8.98;100.00
55914;BME280;58179;48.776;9.124;2024-01-11T07:22:07;98373.44;;;-8.99;100.00
55914;BME280;58179;48.776;9.124;2024-01-11T07:24:33;98362.28;;;-8.98;100.00
55914;BME280;58179;48.776;9.124;2024-01-11T07:27:03;98362.06;;;-8.95;100.00
55914;BME280;58179;48.776;9.124;2024-01-11T07:29:30;98366.97;;;-8.92;100.00
55914;BME280;58179;48.776;9.124;2024-01-11T07:31:56;98368.53;;;-8.89;100.00
55914;BME280;58179;48.776;9.124;2024-01-11T07:34:23;98367.47;;;-8.87;100.00
55914;BME280;58179;48.776;9.124;2024-01-11T07:36:51;98375.88;;;-8.85;100.00
55914;BME280;58179;48.776;9.124;2024-01-11T07:39:17;98382.66;;;-8.84;100.00
55914;BME280;58179;48.776;9.124;2024-01-11T07:41:43;98395.50;;;-8.84;100.00
55914;BME280;58179;48.776;9.124;2024-01-11T07:44:09;98397.94;;;-8.82;100.00
55914;BME280;58179;48.776;9.124;2024-01-11T07:46:36;98400.19;;;-8.78;100.00
55914;BME280;58179;48.776;9.124;2024-01-11T07:49:02;98392.19;;;-8.73;100.00
55914;BME280;58179;48.776;9.124;2024-01-11T07:51:29;98389.31;;;-8.69;100.00
55914;BME280;58179;48.776;9.124;2024-01-11T07:53:56;98389.78;;;-8.64;100.00
55914;BME280;58179;48.776;9.124;2024-01-11T07:56:22;98392.88;;;-8.58;100.00
55914;BME280;58179;48.776;9.124;2024-01-11T07:58:48;98408.97;;;-8.56;100.00
55914;BME280;58179;48.776;9.124;2024-01-11T08:01:15;98415.53;;;-8.52;100.00
55914;BME280;58179;48.776;9.124;2024-01-11T08:03:42;98428.19;;;-8.49;100.00
55914;BME280;58179;48.776;9.124;2024-01-11T08:06:11;98434.81;;;-8.47;100.00
55914;BME280;58179;48.776;9.124;2024-01-11T08:08:38;98448.28;;;-8.43;100.00
55914;BME280;58179;48.776;9.124;2024-01-11T08:11:05;98440.34;;;-8.40;100.00
55914;BME280;58179;48.776;9.124;2024-01-11T08:13:31;98439.13;;;-8.35;100.00
55914;BME280;58179;48.776;9.124;2024-01-11T08:15:57;98436.09;;;-8.29;100.00
55914;BME280;58179;48.776;9.124;2024-01-11T08:18:23;98450.25;;;-8.23;100.00
55914;BME280;58179;48.776;9.124;2024-01-11T08:20:50;98449.91;;;-8.18;100.00
55914;BME280;58179;48.776;9.124;2024-01-11T08:23:16;98462.34;;;-8.12;100.00
55914;BME280;58179;48.776;9.124;2024-01-11T08:25:43;98455.94;;;-8.07;100.00
55914;BME280;58179;48.776;9.124;2024-01-11T08:28:10;98465.88;;;-8.02;100.00
55914;BME280;58179;48.776;9.124;2024-01-11T08:30:36;98464.63;;;-7.97;100.00
55914;BME280;58179;48.776;9.124;2024-01-11T08:33:02;98471.09;;;-7.91;100.00
55914;BME280;58179;48.776;9.124;2024-01-11T08:35:29;98469.00;;;-7.86;100.00
55914;BME280;58179;48.776;9.124;2024-01-11T08:37:58;98466.81;;;-7.79;100.00
55914;BME280;58179;48.776;9.124;2024-01-11T08:40:24;98462.88;;;-7.72;100.00
55914;BME280;58179;48.776;9.124;2024-01-11T08:42:52;98463.13;;;-7.64;100.00
55914;BME280;58179;48.776;9.124;2024-01-11T08:45:18;98466.09;;;-7.58;100.00
55914;BME280;58179;48.776;9.124;2024-01-11T08:47:45;98469.03;;;-7.51;100.00
55914;BME280;58179;48.776;9.124;2024-01-11T08:50:13;98469.41;;;-7.45;100.00
55914;BME280;58179;48.776;9.124;2024-01-11T08:52:39;98468.97;;;-7.38;100.00
55914;BME280;58179;48.776;9.124;2024-01-11T08:55:05;98465.94;;;-7.32;100.00
55914;BME280;58179;48.776;9.124;2024-01-11T08:57:32;98468.88;;;-7.26;100.00
55914;BME280;58179;48.776;9.124;2024-01-11T08:59:59;98466.66;;;-7.19;100.00
55914;BME280;58179;48.776;9.124;2024-01-11T09:02:25;98462.81;;;-7.14;100.00
55914;BME280;58179;48.776;9.124;2024-01-11T09:04:51;98469.28;;;-7.08;100.00
55914;BME280;58179;48.776;9.124;2024-01-11T09:07:17;98458.53;;;-7.02;100.00
55914;BME280;58179;48.776;9.124;2024-01-11T09:09:44;98457.34;;;-6.98;100.00
55914;BME280;58179;48.776;9.124;2024-01-11T09:12:10;98463.00;;;-6.93;100.00
55914;BME280;58179;48.776;9.124;2024-01-11T09:14:36;98473.38;;;-6.83;100.00
55914;BME280;58179;48.776;9.124;2024-01-11T09:17:04;98479.72;;;-6.76;100.00
55914;BME280;58179;48.776;9.124;2024-01-11T09:19:32;98481.03;;;-6.71;100.00
55914;BME280;58179;48.776;9.124;2024-01-11T09:21:59;98471.09;;;-6.64;100.00
55914;BME280;58179;48.776;9.124;2024-01-11T09:24:26;98471.53;;;-6.59;100.00
55914;BME280;58179;48.776;9.124;2024-01-11T09:26:52;98469.31;;;-6.52;100.00
55914;BME280;58179;48.776;9.124;2024-01-11T09:29:18;98461.94;;;-6.46;100.00
55914;BME280;58179;48.776;9.124;2024-01-11T09:31:44;98472.72;;;-6.41;100.00
55914;BME280;58179;48.776;9.124;2024-01-11T09:34:12;98496.13;;;-6.33;100.00
55914;BME280;58179;48.776;9.124;2024-01-11T09:36:38;98488.63;;;-6.24;100.00
55914;BME280;58179;48.776;9.124;2024-01-11T09:39:07;98488.03;;;-6.17;100.00
55914;BME280;58179;48.776;9.124;2024-01-11T09:41:36;98485.53;;;-6.07;100.00
55914;BME280;58179;48.776;9.124;2024-01-11T09:44:05;98483.06;;;-5.98;100.00
55914;BME280;58179;48.776;9.124;2024-01-11T09:46:32;98491.72;;;-5.88;100.00
55914;BME280;58179;48.776;9.124;2024-01-11T09:48:59;98498.69;;;-5.78;100.00
55914;BME280;58179;48.776;9.124;2024-01-11T09:51:29;98510.63;;;-5.66;100.00
55914;BME280;58179;48.776;9.124;2024-01-11T09:53:56;98502.84;;;-5.55;100.00
55914;BME280;58179;48.776;9.124;2024-01-11T09:56:24;98499.41;;;-5.44;100.00
55914;BME280;58179;48.776;9.124;2024-01-11T09:58:53;98501.03;;;-5.12;100.00
55914;BME280;58179;48.776;9.124;2024-01-11T10:01:19;98488.84;;;-4.18;100.00
55914;BME280;58179;48.776;9.124;2024-01-11T10:03:46;98494.53;;;-2.98;100.00
55914;BME280;58179;48.776;9.124;2024-01-11T10:06:12;98499.91;;;-1.88;100.00
55914;BME280;58179;48.776;9.124;2024-01-11T10:08:41;98495.44;;;-0.90;100.00
55914;BME280;58179;48.776;9.124;2024-01-11T10:11:07;98490.56;;;-0.07;100.00
55914;BME280;58179;48.776;9.124;2024-01-11T10:13:33;98495.97;;;0.58;100.00
55914;BME280;58179;48.776;9.124;2024-01-11T10:16:09;98481.16;;;1.15;100.00
55914;BME280;58179;48.776;9.124;2024-01-11T10:18:36;98472.44;;;1.63;100.00
55914;BME280;58179;48.776;9.124;2024-01-11T10:21:03;98469.50;;;2.05;100.00
55914;BME280;58179;48.776;9.124;2024-01-11T10:23:29;98460.91;;;2.50;100.00
55914;BME280;58179;48.776;9.124;2024-01-11T10:26:00;98446.56;;;2.92;100.00
55914;BME280;58179;48.776;9.124;2024-01-11T10:28:26;98446.88;;;3.11;100.00
55914;BME280;58179;48.776;9.124;2024-01-11T10:30:53;98433.91;;;3.33;100.00
55914;BME280;58179;48.776;9.124;2024-01-11T10:33:21;98418.41;;;3.61;100.00
55914;BME280;58179;48.776;9.124;2024-01-11T10:35:47;98415.22;;;3.95;100.00
55914;BME280;58179;48.776;9.124;2024-01-11T10:38:18;98407.16;;;4.32;100.00
55914;BME280;58179;48.776;9.124;2024-01-11T10:40:46;98406.28;;;4.67;100.00
55914;BME280;58179;48.776;9.124;2024-01-11T10:43:17;98403.75;;;5.02;100.00
55914;BME280;58179;48.776;9.124;2024-01-11T10:45:47;98410.19;;;5.27;100.00
55914;BME280;58179;48.776;9.124;2024-01-11T10:48:14;98416.16;;;5.49;100.00
55914;BME280;58179;48.776;9.124;2024-01-11T10:50:43;98413.88;;;5.74;100.00
55914;BME280;58179;48.776;9.124;2024-01-11T10:53:17;98418.72;;;6.05;100.00
55914;BME280;58179;48.776;9.124;2024-01-11T10:55:48;98430.72;;;6.34;100.00
55914;BME280;58179;48.776;9.124;2024-01-11T10:58:16;98426.34;;;6.54;100.00
55914;BME280;58179;48.776;9.124;2024-01-11T11:00:45;98430.81;;;6.67;100.00
55914;BME280;58179;48.776;9.124;2024-01-11T11:03:13;98421.28;;;6.72;100.00
55914;BME280;58179;48.776;9.124;2024-01-11T11:05:41;98427.38;;;6.73;100.00
55914;BME280;58179;48.776;9.124;2024-01-11T11:08:10;98419.47;;;6.73;100.00
55914;BME280;58179;48.776;9.124;2024-01-11T11:10:39;98421.69;;;6.63;100.00
55914;BME280;58179;48.776;9.124;2024-01-11T11:13:06;98417.84;;;6.58;100.00
55914;BME280;58179;48.776;9.124;2024-01-11T11:15:36;98425.72;;;6.52;100.00
55914;BME280;58179;48.776;9.124;2024-01-11T11:18:03;98420.66;;;6.44;100.00
55914;BME280;58179;48.776;9.124;2024-01-11T11:20:32;98425.09;;;6.43;100.00
55914;BME280;58179;48.776;9.124;2024-01-11T11:23:05;98420.66;;;6.44;100.00
55914;BME280;58179;48.776;9.124;2024-01-11T11:25:33;98419.44;;;6.46;100.00
55914;BME280;58179;48.776;9.124;2024-01-11T11:28:00;98408.50;;;6.49;100.00
55914;BME280;58179;48.776;9.124;2024-01-11T11:30:33;98417.22;;;6.56;100.00
55914;BME280;58179;48.776;9.124;2024-01-11T11:33:08;98408.13;;;6.59;100.00
55914;BME280;58179;48.776;9.124;2024-01-11T11:35:34;98403.69;;;6.53;100.00
55914;BME280;58179;48.776;9.124;2024-01-11T11:38:01;98413.38;;;6.46;100.00
55914;BME280;58179;48.776;9.124;2024-01-11T11:40:33;98427.53;;;6.38;100.00
55914;BME280;58179;48.776;9.124;2024-01-11T11:43:01;98425.66;;;6.32;100.00
55914;BME280;58179;48.776;9.124;2024-01-11T11:45:29;98414.31;;;6.18;100.00
55914;BME280;58179;48.776;9.124;2024-01-11T11:47:57;98415.28;;;6.11;100.00
55914;BME280;58179;48.776;9.124;2024-01-11T11:50:25;98400.53;;;6.10;100.00
55914;BME280;58179;48.776;9.124;2024-01-11T11:52:54;98408.81;;;6.07;100.00
55914;BME280;58179;48.776;9.124;2024-01-11T11:55:23;98400.47;;;5.97;100.00
55914;BME280;58179;48.776;9.124;2024-01-11T11:57:53;98397.00;;;5.90;100.00
55914;BME280;58179;48.776;9.124;2024-01-11T12:00:20;98395.97;;;5.84;100.00
55914;BME280;58179;48.776;9.124;2024-01-11T12:02:47;98395.25;;;5.62;100.00
55914;BME280;58179;48.776;9.124;2024-01-11T12:05:13;98399.03;;;5.19;100.00
55914;BME280;58179;48.776;9.124;2024-01-11T12:07:41;98386.50;;;4.65;100.00
55914;BME280;58179;48.776;9.124;2024-01-11T12:10:08;98377.22;;;4.20;100.00
55914;BME280;58179;48.776;9.124;2024-01-11T12:12:34;98373.06;;;3.89;100.00
55914;BME280;58179;48.776;9.124;2024-01-11T12:15:03;98353.88;;;3.68;100.00
55914;BME280;58179;48.776;9.124;2024-01-11T12:17:29;98361.63;;;3.46;100.00
55914;BME280;58179;48.776;9.124;2024-01-11T12:19:55;98366.34;;;3.22;100.00
55914;BME280;58179;48.776;9.124;2024-01-11T12:22:22;98376.25;;;3.11;100.00
55914;BME280;58179;48.776;9.124;2024-01-11T12:24:49;98354.00;;;3.16;100.00
55914;BME280;58179;48.776;9.124;2024-01-11T12:27:16;98357.84;;;3.34;100.00
55914;BME280;58179;48.776;9.124;2024-01-11T12:29:42;98366.50;;;3.64;100.00
55914;BME280;58179;48.776;9.124;2024-01-11T12:32:08;98363.03;;;4.14;100.00
55914;BME280;58179;48.776;9.124;2024-01-11T12:34:38;98364.91;;;4.63;100.00
55914;BME280;58179;48.776;9.124;2024-01-11T12:37:05;98362.09;;;4.64;100.00
55914;BME280;58179;48.776;9.124;2024-01-11T12:39:32;98354.63;;;4.19;100.00
55914;BME280;58179;48.776;9.124;2024-01-11T12:41:59;98355.69;;;3.53;100.00
55914;BME280;58179;48.776;9.124;2024-01-11T12:44:25;98349.91;;;3.13;100.00
55914;BME280;58179;48.776;9.124;2024-01-11T12:46:52;98362.91;;;3.21;100.00
55914;BME280;58179;48.776;9.124;2024-01-11T12:49:18;98362.09;;;3.50;100.00
55914;BME280;58179;48.776;9.124;2024-01-11T12:51:45;98357.94;;;3.56;100.00